LFOA METAR and TAF | Updated Today

LFOA METAR

Avord (BA 702) Air Base

Observation time: 30 min. ago

LFOA 260200Z AUTO 26001KT 9999 FEW026 OVC120 13/13 Q1015

Need help? Read our tutorial on how to read METARs or read the parsed version below.

Avord (BA 702) Air Base (LFOA) METAR

  • Weather conditions on Sun, 26 Jun 2022 02:00:00 +0000 (30 min. ago):
  • Present conditions: Dry
  • Clouds: A few at 792 meters; overcast sky at 3658 meters
  • Visibility: Greater than 10 km
  • Wind: 260 degrees at 1 knots
  • Temperature: 13 celsius
  • Dew point: 13 celsius
  • Pressure: 1015 millibars
  • Remarks: None


Useful to know...